Time;durP1;ratioP1;P1;durP2;ratioP2;P2;SDS_P1;SDS_P2;PMS_P1;PMS_P2;Temp;Humidity;BMP_temperature;BMP_pressure;BME280_temperature;BME280_humidity;BME280_pressure;Samples;Min_cycle;Max_cycle;Signal;HPM_P1;HPM_P2
2021/01/02 00:00:10;;;;;;;;;53.20;41.80;;;;;7.89;48.69;98494.81;6160568;28;126541;-61
2021/01/02 00:03:31;;;;;;;;;53.00;42.40;;;;;7.88;48.50;98493.16;6160269;28;125729;-60
2021/01/02 00:06:53;;;;;;;;;52.60;42.00;;;;;7.81;48.70;98520.03;6160522;28;125863;-60
2021/01/02 00:09:59;;;;;;;;;51.00;39.80;;;;;7.81;48.98;98522.72;6160994;28;127152;-61
2021/01/02 00:13:39;;;;;;;;;53.00;41.00;;;;;7.80;48.80;98513.03;6160616;28;126153;-61
2021/01/02 00:17:08;;;;;;;;;52.20;40.80;;;;;7.48;48.93;98454.13;6149136;28;126084;-61
2021/01/02 00:20:43;;;;;;;;;55.00;41.00;;;;;7.85;49.08;98520.44;6152540;28;125656;-62
2021/01/02 00:24:16;;;;;;;;;53.40;42.00;;;;;7.88;48.82;98517.31;6127035;28;125835;-60
2021/01/02 00:27:32;;;;;;;;;57.40;44.00;;;;;7.73;48.74;98495.28;6156679;28;124136;-60
2021/01/02 00:30:52;;;;;;;;;51.50;40.50;;;;;7.96;48.83;98527.00;6159470;28;126102;-60
2021/01/02 00:34:12;;;;;;;;;52.00;40.00;;;;;7.96;48.65;98530.50;6151223;28;125889;-60
2021/01/02 00:37:38;;;;;;;;;55.40;42.80;;;;;7.97;48.65;98523.25;6153029;28;124924;-60
2021/01/02 00:40:41;;;;;;;;;52.00;41.20;;;;;7.99;48.49;98534.59;6159683;28;126157;-60
2021/01/02 00:43:46;;;;;;;;;53.00;41.00;;;;;7.97;48.74;98526.75;6160317;28;126289;-61
2021/01/02 00:46:48;;;;;;;;;52.75;40.00;;;;;7.95;48.83;98533.41;6158862;28;128259;-61
2021/01/02 00:49:54;;;;;;;;;53.00;42.50;;;;;7.88;49.07;98530.72;6156313;28;126450;-60
2021/01/02 00:53:03;;;;;;;;;57.00;43.40;;;;;7.77;49.21;98534.91;6127351;28;125928;-60
2021/01/02 00:56:21;;;;;;;;;47.20;38.20;;;;;7.51;49.36;98555.63;6152035;28;124783;-61
2021/01/02 00:59:44;;;;;;;;;49.60;40.00;;;;;7.43;49.75;98539.78;6159574;28;126358;-60
2021/01/02 01:03:07;;;;;;;;;50.20;38.40;;;;;7.44;49.75;98544.91;6150619;28;125896;-60
2021/01/02 01:06:11;;;;;;;;;49.60;39.60;;;;;7.51;49.80;98555.63;6144145;28;124866;-61
2021/01/02 01:09:14;;;;;;;;;51.00;40.80;;;;;7.57;49.65;98565.53;6159193;28;126697;-61
2021/01/02 01:12:19;;;;;;;;;52.00;41.00;;;;;7.44;49.71;98534.19;6159314;28;125018;-61
2021/01/02 01:15:20;;;;;;;;;54.20;42.00;;;;;7.44;49.47;98550.28;6159131;28;124832;-61
2021/01/02 01:18:37;;;;;;;;;50.80;40.00;;;;;7.51;49.35;98552.94;6148354;28;124414;-60
2021/01/02 01:21:44;;;;;;;;;52.60;41.60;;;;;7.54;49.21;98545.28;6146847;28;124922;-61
2021/01/02 01:25:01;;;;;;;;;51.40;39.00;;;;;7.47;49.09;98517.69;6158006;28;124835;-61
2021/01/02 01:28:10;;;;;;;;;52.50;41.50;;;;;7.36;48.91;98523.69;6159015;28;126532;-60
2021/01/02 01:31:17;;;;;;;;;53.80;41.80;;;;;7.45;48.74;98532.31;6148071;28;126274;-60
2021/01/02 01:34:23;;;;;;;;;54.40;42.20;;;;;7.32;48.70;98531.34;6158822;28;126007;-61
2021/01/02 01:37:28;;;;;;;;;55.25;42.00;;;;;6.80;48.95;98473.25;6158921;28;124772;-60
2021/01/02 01:40:38;;;;;;;;;50.80;40.00;;;;;7.24;48.76;98525.34;6158670;28;124830;-61
2021/01/02 01:44:00;;;;;;;;;50.00;40.00;;;;;7.25;48.73;98530.50;6159118;28;125767;-60
2021/01/02 01:47:17;;;;;;;;;51.40;39.80;;;;;7.27;49.06;98531.13;6158923;28;125473;-61
2021/01/02 01:50:27;;;;;;;;;49.50;39.00;;;;;7.25;48.89;98535.88;6149711;28;125962;-61
2021/01/02 01:54:10;;;;;;;;;52.00;40.00;;;;;7.24;48.62;98534.22;6143847;28;125213;-61
2021/01/02 01:57:22;;;;;;;;;52.00;40.00;;;;;7.20;48.75;98532.16;6158818;28;124831;-61
2021/01/02 02:00:43;;;;;;;;;49.00;38.60;;;;;7.20;48.76;98540.22;6130028;28;125809;-61
2021/01/02 02:04:11;;;;;;;;;49.80;39.20;;;;;6.99;48.52;98541.25;6158385;28;124554;-61
2021/01/02 02:07:17;;;;;;;;;50.40;39.00;;;;;6.91;48.96;98533.44;6137296;28;125835;-61
2021/01/02 02:10:28;;;;;;;;;52.60;40.40;;;;;6.78;48.66;98538.81;6158784;28;124375;-61
2021/01/02 02:13:35;;;;;;;;;47.00;38.00;;;;;6.42;49.03;98509.72;6152051;28;124717;-61
2021/01/02 02:16:51;;;;;;;;;49.60;39.40;;;;;6.63;49.39;98551.56;6157958;28;124710;-60
2021/01/02 02:19:57;;;;;;;;;52.50;41.00;;;;;6.51;49.44;98543.31;6158771;28;127041;-61
2021/01/02 02:23:03;;;;;;;;;48.50;40.00;;;;;6.48;48.55;98541.03;6145400;28;125926;-61
2021/01/02 02:26:23;;;;;;;;;50.40;40.00;;;;;6.24;48.81;98491.59;6157833;28;125641;-61
2021/01/02 02:29:36;;;;;;;;;53.40;41.00;;;;;6.53;48.91;98533.22;6145503;28;124576;-60
2021/01/02 02:32:41;;;;;;;;;52.00;41.60;;;;;6.55;48.48;98527.66;6158136;28;125008;-61
2021/01/02 02:35:44;;;;;;;;;53.50;40.50;;;;;6.41;48.76;98513.41;6158012;28;125437;-60
2021/01/02 02:38:46;;;;;;;;;56.00;44.00;;;;;6.80;48.33;98550.94;6157927;28;125105;-60
2021/01/02 02:41:50;;;;;;;;;57.60;45.00;;;;;6.85;48.53;98535.09;6157426;28;125487;-61
2021/01/02 02:44:54;;;;;;;;;52.80;42.20;;;;;6.81;48.52;98536.53;6157437;28;126233;-61
2021/01/02 02:47:59;;;;;;;;;58.00;45.80;;;;;6.65;48.71;98517.34;6158059;28;124600;-60
2021/01/02 02:51:01;;;;;;;;;55.00;42.00;;;;;6.38;49.11;98471.00;6158910;28;96856;-61
2021/01/02 02:54:03;;;;;;;;;55.40;43.40;;;;;6.76;49.12;98524.78;6141203;28;126872;-60
2021/01/02 02:57:07;;;;;;;;;52.00;41.40;;;;;6.78;49.20;98531.59;6147842;28;125499;-60
2021/01/02 03:00:09;;;;;;;;;54.20;42.80;;;;;6.84;49.39;98536.09;6157673;28;124930;-60
2021/01/02 03:03:10;;;;;;;;;53.40;40.00;;;;;6.90;49.27;98524.56;6157680;28;125157;-60
2021/01/02 03:06:12;;;;;;;;;54.20;41.80;;;;;7.01;49.11;98543.75;6156994;28;126563;-60
2021/01/02 03:09:13;;;;;;;;;54.75;42.00;;;;;6.85;48.76;98496.75;6157576;28;128593;-61
2021/01/02 03:12:15;;;;;;;;;52.00;40.00;;;;;7.09;48.41;98535.47;6156643;28;125374;-60
2021/01/02 03:15:18;;;;;;;;;50.00;39.20;;;;;7.17;48.72;98535.28;6156838;28;127422;-61
2021/01/02 03:18:20;;;;;;;;;50.00;40.00;;;;;7.13;48.54;98542.91;6156616;28;124907;-61
2021/01/02 03:21:22;;;;;;;;;47.00;39.00;;;;;7.03;48.84;98539.00;6154386;28;125996;-61
2021/01/02 03:24:24;;;;;;;;;48.80;39.00;;;;;6.80;48.78;98496.53;6157948;28;127308;-61
2021/01/02 03:27:25;;;;;;;;;49.20;38.60;;;;;6.73;48.86;98501.09;6148162;28;125398;-61
2021/01/02 03:30:26;;;;;;;;;50.00;38.50;;;;;6.64;48.98;98495.13;6161063;28;125546;-60
2021/01/02 03:33:28;;;;;;;;;50.50;39.75;;;;;7.13;48.83;98539.41;6148472;28;125434;-60
2021/01/02 03:36:30;;;;;;;;;51.00;40.00;;;;;7.12;48.90;98521.69;6161398;28;126323;-61
2021/01/02 03:39:33;;;;;;;;;47.40;38.00;;;;;7.13;48.84;98542.91;6160564;28;125310;-61
2021/01/02 03:42:41;;;;;;;;;50.40;38.00;;;;;7.17;48.94;98540.63;6161072;28;125155;-60
2021/01/02 03:45:43;;;;;;;;;53.00;39.50;;;;;6.86;48.75;98477.78;6160582;28;125057;-60
2021/01/02 03:48:45;;;;;;;;;51.80;40.20;;;;;6.78;49.08;98496.75;6160624;28;127780;-60
2021/01/02 03:51:47;;;;;;;;;50.50;40.00;;;;;7.12;49.09;98535.06;6153872;28;126698;-62
2021/01/02 03:54:48;;;;;;;;;50.60;39.00;;;;;6.94;49.14;98506.22;6161273;28;127411;-61
2021/01/02 03:57:50;;;;;;;;;51.00;39.00;;;;;7.03;49.07;98509.53;6160927;28;125359;-61
2021/01/02 04:00:51;;;;;;;;;49.50;39.50;;;;;7.23;49.05;98547.84;6160060;28;126389;-61
2021/01/02 04:03:53;;;;;;;;;52.60;39.20;;;;;7.27;48.95;98543.72;6160651;28;126202;-60
2021/01/02 04:06:54;;;;;;;;;52.00;41.00;;;;;7.08;48.82;98523.97;6160763;28;125693;-60
2021/01/02 04:09:56;;;;;;;;;52.00;40.00;;;;;7.26;48.99;98545.56;6160420;28;127229;-61
2021/01/02 04:12:57;;;;;;;;;49.80;37.40;;;;;7.27;49.09;98535.69;6159927;28;125325;-61
2021/01/02 04:16:00;;;;;;;;;54.00;41.00;;;;;6.95;49.23;98486.44;6159909;28;126048;-60
2021/01/02 04:19:03;;;;;;;;;47.40;38.00;;;;;6.84;49.00;98484.41;6159916;28;125241;-60
2021/01/02 04:22:04;;;;;;;;;50.00;39.00;;;;;7.28;49.10;98542.69;6148390;28;124974;-60
2021/01/02 04:25:06;;;;;;;;;50.50;39.75;;;;;7.30;49.08;98544.13;6144074;28;126578;-60
2021/01/02 04:28:11;;;;;;;;;51.00;38.60;;;;;7.07;49.07;98508.91;6143819;28;125956;-60
2021/01/02 04:31:12;;;;;;;;;50.40;39.60;;;;;7.27;49.05;98543.72;6159880;28;124561;-60
2021/01/02 04:34:13;;;;;;;;;50.00;38.40;;;;;7.31;49.00;98548.47;6160106;28;124735;-60
2021/01/02 04:37:15;;;;;;;;;47.80;37.80;;;;;7.08;48.82;98507.88;6150057;28;126795;-60
2021/01/02 04:40:16;;;;;;;;;49.40;39.00;;;;;7.37;48.90;98546.78;6149806;28;126294;-60
2021/01/02 04:43:18;;;;;;;;;47.00;38.00;;;;;7.30;48.82;98533.41;6152994;28;125561;-60
2021/01/02 04:46:21;;;;;;;;;51.50;40.00;;;;;7.25;48.70;98535.03;6158574;28;127726;-60
2021/01/02 04:49:23;;;;;;;;;47.00;36.40;;;;;7.35;48.67;98540.81;6159856;28;126260;-61
2021/01/02 04:52:25;;;;;;;;;48.80;39.40;;;;;7.37;48.39;98552.16;6148605;28;126535;-60
2021/01/02 04:55:28;;;;;;;;;48.00;37.00;;;;;7.12;48.36;98532.41;6154264;28;126487;-61
2021/01/02 04:58:30;;;;;;;;;45.80;36.00;;;;;7.37;48.46;98553.00;6159149;28;125010;-61
2021/01/02 05:01:31;;;;;;;;;48.00;37.80;;;;;7.29;48.39;98545.16;6153699;28;126277;-61
2021/01/02 05:04:33;;;;;;;;;47.00;36.00;;;;;7.34;48.44;98563.28;6159779;28;126134;-61
2021/01/02 05:07:35;;;;;;;;;49.00;36.00;;;;;6.92;47.99;98501.09;6154406;28;125161;-61
2021/01/02 05:10:36;;;;;;;;;47.00;36.00;;;;;7.36;48.55;98558.56;6159508;28;126639;-61
2021/01/02 05:13:38;;;;;;;;;49.40;39.00;;;;;7.45;48.56;98567.19;6159364;28;125251;-60
2021/01/02 05:16:41;;;;;;;;;48.80;37.60;;;;;7.49;48.12;98563.88;6153262;28;125428;-60
2021/01/02 05:19:58;;;;;;;;;46.00;36.50;;;;;7.40;48.17;98571.34;6159139;28;124982;-61
2021/01/02 05:23:09;;;;;;;;;44.40;35.00;;;;;7.39;48.33;98575.03;6125980;28;124975;-61
2021/01/02 05:26:10;;;;;;;;;46.40;37.60;;;;;7.38;48.28;98576.06;6158615;28;125140;-60
2021/01/02 05:29:23;;;;;;;;;49.60;37.40;;;;;7.29;48.49;98588.03;6159244;28;126658;-61
2021/01/02 05:32:25;;;;;;;;;44.60;35.00;;;;;7.13;48.57;98569.72;6158796;28;126174;-60
2021/01/02 05:35:46;;;;;;;;;44.60;35.00;;;;;7.26;48.68;98584.97;6147243;28;128303;-60
2021/01/02 05:38:47;;;;;;;;;47.20;37.20;;;;;7.21;48.75;98593.63;6159845;28;126098;-61
2021/01/02 05:41:51;;;;;;;;;48.60;37.80;;;;;7.18;48.95;98595.91;6155304;28;125293;-61
2021/01/02 05:44:58;;;;;;;;;49.40;35.00;;;;;6.99;49.36;98588.69;6158066;28;125748;-61
2021/01/02 05:48:31;;;;;;;;;44.60;35.00;;;;;7.02;49.48;98589.09;6158446;28;125119;-61
2021/01/02 05:51:41;;;;;;;;;49.00;36.00;;;;;7.07;49.55;98591.16;6129817;28;124226;-60
2021/01/02 05:54:45;;;;;;;;;46.60;36.00;;;;;7.12;49.47;98599.41;6141577;28;126235;-61
2021/01/02 05:57:47;;;;;;;;;47.00;38.00;;;;;7.17;49.35;98596.94;6155937;28;126077;-61
2021/01/02 06:00:48;;;;;;;;;41.60;33.00;;;;;7.17;49.54;98594.25;6157247;28;123938;-60
2021/01/02 06:03:50;;;;;;;;;45.00;36.00;;;;;7.02;49.45;98569.50;6158258;28;126632;-61
2021/01/02 06:07:08;;;;;;;;;44.60;35.00;;;;;7.24;49.29;98595.06;6158120;28;126559;-61
2021/01/02 06:10:10;;;;;;;;;40.40;34.00;;;;;7.20;49.12;98593.84;6135464;28;126449;-61
2021/01/02 06:13:14;;;;;;;;;47.00;36.00;;;;;7.20;49.19;98604.56;6143093;28;125392;-61
2021/01/02 06:16:16;;;;;;;;;44.80;35.00;;;;;7.27;48.78;98608.06;6143428;28;127182;-61
2021/01/02 06:19:17;;;;;;;;;45.40;35.00;;;;;7.28;48.88;98604.38;6158598;28;126479;-60
2021/01/02 06:22:19;;;;;;;;;47.20;36.00;;;;;7.15;49.16;98610.53;6131821;28;126551;-60
2021/01/02 06:25:20;;;;;;;;;47.00;36.00;;;;;7.15;49.08;98607.03;6158010;28;125073;-60
2021/01/02 06:28:26;;;;;;;;;46.60;36.00;;;;;7.05;48.98;98602.09;6152723;28;125221;-60
2021/01/02 06:31:33;;;;;;;;;44.50;36.00;;;;;6.78;49.62;98595.06;6156616;28;125984;-61
2021/01/02 06:34:36;;;;;;;;;46.60;36.00;;;;;6.84;49.49;98603.09;6157500;28;124494;-60
2021/01/02 06:37:46;;;;;;;;;45.60;37.60;;;;;6.89;49.46;98622.06;6148381;28;126690;-61
2021/01/02 06:40:51;;;;;;;;;49.20;38.80;;;;;6.85;49.30;98615.47;6158005;28;124950;-61
2021/01/02 06:43:52;;;;;;;;;45.20;36.00;;;;;6.52;49.81;98603.88;6157647;28;126104;-61
2021/01/02 06:47:12;;;;;;;;;45.20;36.00;;;;;6.66;49.73;98615.44;6156966;28;127094;-61
2021/01/02 06:50:17;;;;;;;;;47.00;36.40;;;;;6.74;49.89;98613.41;6142369;28;125686;-60
2021/01/02 06:53:26;;;;;;;;;42.60;35.00;;;;;6.76;49.90;98613.19;6158176;28;126414;-60
2021/01/02 06:56:30;;;;;;;;;41.00;35.00;;;;;6.80;49.64;98617.94;6157307;28;126005;-60
2021/01/02 06:59:32;;;;;;;;;44.00;34.60;;;;;6.77;49.50;98625.56;6158749;28;125622;-60
2021/01/02 07:02:33;;;;;;;;;43.00;35.00;;;;;6.11;49.46;98515.63;6157081;28;126637;-60
2021/01/02 07:05:47;;;;;;;;;44.60;34.60;;;;;6.60;49.59;98597.53;6161299;28;126591;-60
2021/01/02 07:08:50;;;;;;;;;44.60;36.00;;;;;6.83;50.00;98617.53;6161813;28;125786;-60
2021/01/02 07:12:06;;;;;;;;;46.60;36.00;;;;;6.91;49.63;98620.00;6159541;28;126501;-60
2021/01/02 07:15:07;;;;;;;;;47.00;37.00;;;;;6.90;49.57;98613.00;6152464;28;127109;-60
2021/01/02 07:18:24;;;;;;;;;48.50;38.00;;;;;7.12;49.59;98632.41;6161150;28;126635;-60
2021/01/02 07:21:36;;;;;;;;;44.00;35.50;;;;;6.90;49.50;98607.63;6158062;28;125180;-60
2021/01/02 07:24:54;;;;;;;;;45.00;36.00;;;;;7.09;49.67;98630.13;6160869;28;127055;-61
2021/01/02 07:28:01;;;;;;;;;40.00;33.00;;;;;7.12;49.33;98636.94;6144372;28;124756;-62
2021/01/02 07:31:03;;;;;;;;;43.60;33.20;;;;;7.05;49.71;98623.53;6160584;28;126765;-61
2021/01/02 07:34:04;;;;;;;;;43.80;35.00;;;;;7.18;49.33;98638.81;6160224;28;126999;-60
2021/01/02 07:37:08;;;;;;;;;48.80;36.60;;;;;7.06;49.36;98605.59;6160970;28;127614;-60
2021/01/02 07:40:11;;;;;;;;;44.60;35.00;;;;;7.38;49.14;98644.97;6160693;28;126938;-61
2021/01/02 07:43:12;;;;;;;;;42.20;33.00;;;;;7.36;49.14;98636.31;6160967;28;125035;-60
2021/01/02 07:46:14;;;;;;;;;38.67;32.33;;;;;7.61;48.87;98648.06;6158423;28;126678;-60
2021/01/02 07:49:17;;;;;;;;;38.00;32.00;;;;;7.75;48.29;98652.38;6149281;28;124348;-60
2021/01/02 07:52:19;;;;;;;;;42.60;33.60;;;;;7.82;48.25;98655.03;6148741;28;126845;-61
2021/01/02 07:55:25;;;;;;;;;40.60;33.00;;;;;7.82;47.82;98653.16;6160668;28;126487;-61
2021/01/02 07:58:26;;;;;;;;;41.80;33.00;;;;;7.56;47.52;98631.75;6156378;28;125613;-60
2021/01/02 08:01:28;;;;;;;;;43.50;33.75;;;;;7.80;47.55;98649.88;6160149;28;126410;-61
2021/01/02 08:04:31;;;;;;;;;43.60;33.00;;;;;7.83;47.88;98651.31;6147282;28;125159;-61
2021/01/02 08:07:32;;;;;;;;;39.00;33.00;;;;;7.48;48.02;98599.78;6160711;28;127523;-61
2021/01/02 08:10:34;;;;;;;;;47.40;36.00;;;;;7.57;47.67;98620.00;6159815;28;126535;-61
2021/01/02 08:13:36;;;;;;;;;41.50;35.00;;;;;7.77;47.83;98654.84;6160222;28;126130;-61
2021/01/02 08:16:38;;;;;;;;;45.00;34.25;;;;;7.50;47.64;98604.94;6160041;28;126517;-61
2021/01/02 08:19:45;;;;;;;;;49.00;38.40;;;;;7.78;47.90;98659.16;6171017;28;126554;-61
2021/01/02 08:22:47;;;;;;;;;44.20;34.60;;;;;7.59;47.87;98666.22;6147690;28;126766;-60
2021/01/02 08:25:48;;;;;;;;;46.75;37.75;;;;;7.49;48.33;98638.16;6160579;28;124603;-60
2021/01/02 08:28:50;;;;;;;;;46.40;35.00;;;;;7.65;48.27;98657.34;6160293;28;124635;-61
2021/01/02 08:31:59;;;;;;;;;45.50;36.50;;;;;7.39;48.37;98630.53;6160602;28;128305;-60
2021/01/02 08:35:00;;;;;;;;;43.60;35.60;;;;;7.52;48.05;98659.22;6159792;28;123706;-60
2021/01/02 08:38:10;;;;;;;;;45.00;35.00;;;;;7.76;48.23;98680.03;6160625;28;127122;-61
2021/01/02 08:41:22;;;;;;;;;44.25;35.00;;;;;7.84;48.17;98680.63;6161379;28;125900;-61
2021/01/02 08:44:42;;;;;;;;;47.60;35.40;;;;;7.79;47.71;98660.81;6156436;28;127094;-62
2021/01/02 08:47:43;;;;;;;;;44.33;36.00;;;;;7.98;47.71;98675.22;6155936;28;124675;-61
2021/01/02 08:50:45;;;;;;;;;46.20;36.00;;;;;7.99;47.65;98688.44;6159320;28;126511;-61
2021/01/02 08:53:47;;;;;;;;;49.00;37.60;;;;;7.83;47.75;98659.38;6156904;28;126428;-61
2021/01/02 08:56:48;;;;;;;;;47.20;36.40;;;;;7.92;47.74;98684.13;6159858;28;125189;-60
2021/01/02 08:59:49;;;;;;;;;48.00;38.00;;;;;7.92;47.89;98686.78;6159857;28;126461;-60
2021/01/02 09:03:02;;;;;;;;;49.00;36.75;;;;;7.99;47.84;98693.00;6159493;28;126302;-60
2021/01/02 09:06:21;;;;;;;;;47.20;35.80;;;;;8.07;47.92;98701.63;6159669;28;126511;-60
2021/01/02 09:09:23;;;;;;;;;42.40;33.40;;;;;8.13;47.84;98690.06;6147393;28;126339;-61
2021/01/02 09:12:25;;;;;;;;;46.80;34.40;;;;;8.09;47.56;98699.59;6160593;28;126591;-61
2021/01/02 09:15:59;;;;;;;;;45.00;35.00;;;;;8.12;47.59;98698.31;6159484;28;124751;-61
2021/01/02 09:19:01;;;;;;;;;41.00;34.20;;;;;8.20;47.55;98708.84;6160015;28;124739;-61
2021/01/02 09:22:15;;;;;;;;;41.00;32.60;;;;;8.19;47.49;98710.72;6150852;28;125024;-61
2021/01/02 09:25:17;;;;;;;;;43.00;33.00;;;;;8.01;47.52;98675.66;6152772;28;126229;-61
2021/01/02 09:28:19;;;;;;;;;38.25;32.00;;;;;8.02;47.23;98665.72;6158936;28;125995;-61
2021/01/02 09:31:21;;;;;;;;;41.80;34.00;;;;;8.44;47.49;98712.72;6159284;28;125041;-61
2021/01/02 09:34:22;;;;;;;;;43.60;33.20;;;;;8.30;47.25;98678.91;6155442;28;125304;-61
2021/01/02 09:37:26;;;;;;;;;39.00;34.00;;;;;8.54;47.11;98689.75;6156691;28;127085;-61
2021/01/02 09:40:39;;;;;;;;;42.00;34.00;;;;;8.91;47.21;98711.47;6159821;28;126032;-60
2021/01/02 09:43:44;;;;;;;;;40.80;33.80;;;;;8.92;46.79;98676.31;6160010;28;125580;-60
2021/01/02 09:46:49;;;;;;;;;44.33;34.67;;;;;9.49;45.91;98718.34;6158686;28;124287;-61
2021/01/02 09:49:50;;;;;;;;;44.80;34.80;;;;;10.12;44.80;98723.56;6158984;28;124746;-61
2021/01/02 09:52:52;;;;;;;;;37.00;31.60;;;;;11.38;42.71;98712.06;6126275;28;125565;-61
2021/01/02 09:55:53;;;;;;;;;37.00;32.80;;;;;12.79;41.00;98703.69;6151425;28;125318;-61
2021/01/02 09:58:55;;;;;;;;;37.00;33.00;;;;;13.82;37.32;98662.78;6158126;28;125320;-61
2021/01/02 10:01:57;;;;;;;;;39.80;31.00;;;;;15.24;36.21;98697.16;6162226;28;127306;-61
2021/01/02 10:04:58;;;;;;;;;45.00;33.00;;;;;16.01;34.37;98701.13;6158481;28;127360;-61
2021/01/02 10:07:59;;;;;;;;;39.00;32.00;;;;;16.50;32.72;98709.03;6159003;28;125490;-61
2021/01/02 10:11:05;;;;;;;;;38.75;33.00;;;;;16.65;32.96;98702.88;6158869;28;126948;-62
2021/01/02 10:14:06;;;;;;;;;43.25;34.25;;;;;17.00;32.24;98699.47;6156130;28;125636;-62
2021/01/02 10:17:08;;;;;;;;;42.40;34.00;;;;;17.53;31.63;98696.31;6158424;28;125400;-62
2021/01/02 10:20:11;;;;;;;;;42.60;35.00;;;;;18.45;30.62;98706.09;6158292;28;125429;-62
2021/01/02 10:23:13;;;;;;;;;45.40;35.00;;;;;19.12;29.22;98698.47;6151019;28;125904;-62
2021/01/02 10:26:22;;;;;;;;;45.00;34.00;;;;;19.75;29.08;98680.28;6155018;28;126855;-62
2021/01/02 10:29:24;;;;;;;;;40.00;33.00;;;;;20.18;27.95;98673.06;6152564;28;127155;-62
2021/01/02 10:32:28;;;;;;;;;40.40;33.00;;;;;20.77;27.48;98674.63;6135844;28;126428;-62
2021/01/02 10:35:29;;;;;;;;;41.00;33.00;;;;;21.09;26.69;98664.59;6159302;28;124917;-62
2021/01/02 10:38:31;;;;;;;;;43.80;35.00;;;;;21.36;26.06;98658.47;6157354;28;127613;-62
2021/01/02 10:41:32;;;;;;;;;44.25;34.25;;;;;21.77;25.95;98653.16;6145026;28;127945;-62
2021/01/02 10:44:34;;;;;;;;;42.60;35.40;;;;;22.17;25.59;98659.88;6161295;28;127878;-62
2021/01/02 10:47:35;;;;;;;;;48.00;37.40;;;;;22.59;24.96;98663.47;6148135;28;128681;-62
2021/01/02 10:50:37;;;;;;;;;46.50;36.00;;;;;22.89;24.96;98654.63;6162051;28;126390;-62
2021/01/02 10:53:38;;;;;;;;;52.00;40.00;;;;;23.12;24.76;98655.50;6150984;28;127195;-62
2021/01/02 10:56:45;;;;;;;;;44.60;35.00;;;;;23.24;24.00;98666.78;6160800;28;125015;-62
2021/01/02 10:59:51;;;;;;;;;49.00;36.20;;;;;23.27;24.39;98652.41;6143769;28;124803;-62
2021/01/02 11:02:52;;;;;;;;;47.00;37.00;;;;;23.29;24.21;98655.66;6157177;28;125369;-62
2021/01/02 11:05:54;;;;;;;;;45.00;36.00;;;;;23.13;24.59;98646.13;6154708;28;125316;-62
2021/01/02 11:08:55;;;;;;;;;45.20;37.20;;;;;22.85;24.45;98648.13;6158877;28;125541;-62
2021/01/02 11:11:57;;;;;;;;;49.50;39.00;;;;;22.26;24.73;98638.84;6159524;28;125141;-62
2021/01/02 11:14:59;;;;;;;;;45.00;36.00;;;;;21.90;25.50;98629.59;6160091;28;126680;-62
2021/01/02 11:18:00;;;;;;;;;48.80;38.00;;;;;21.95;25.72;98630.34;6163848;28;125490;-63
2021/01/02 11:21:01;;;;;;;;;47.00;36.60;;;;;21.65;25.76;98628.09;6165081;28;126529;-61
2021/01/02 11:24:03;;;;;;;;;46.40;37.00;;;;;21.14;26.71;98630.84;6152258;28;127216;-62
2021/01/02 11:27:05;;;;;;;;;45.00;35.33;;;;;20.53;27.48;98625.31;6160355;28;126346;-62
2021/01/02 11:30:07;;;;;;;;;47.00;37.00;;;;;19.99;28.13;98623.69;6155167;28;125200;-61
2021/01/02 11:33:08;;;;;;;;;46.50;38.50;;;;;19.31;29.16;98606.50;6161695;28;126362;-63
2021/01/02 11:36:11;;;;;;;;;50.00;39.00;;;;;19.06;29.77;98628.56;6160567;28;126124;-63
2021/01/02 11:39:12;;;;;;;;;49.60;39.60;;;;;18.66;30.15;98622.22;6159193;28;127137;-61
2021/01/02 11:42:14;;;;;;;;;46.50;38.00;;;;;18.22;30.51;98613.91;6143390;28;125628;-61
2021/01/02 11:45:22;;;;;;;;;49.20;40.00;;;;;17.97;31.49;98625.69;6157910;28;126374;-61
2021/01/02 11:48:23;;;;;;;;;48.50;38.00;;;;;17.64;31.98;98608.00;6158259;28;125601;-61
2021/01/02 11:51:25;;;;;;;;;48.80;40.00;;;;;17.33;31.99;98593.56;6161599;28;127223;-61
2021/01/02 11:54:30;;;;;;;;;50.00;38.00;;;;;17.25;32.41;98610.44;6157198;28;126571;-61
2021/01/02 11:57:31;;;;;;;;;50.80;38.40;;;;;17.04;32.90;98599.81;6130286;28;124806;-63
2021/01/02 12:00:33;;;;;;;;;43.80;36.80;;;;;17.10;33.01;98599.56;6150011;28;124930;-61
2021/01/02 12:03:34;;;;;;;;;46.20;36.00;;;;;16.63;33.48;98605.16;6164095;28;127334;-61
2021/01/02 12:06:36;;;;;;;;;45.25;36.75;;;;;16.08;34.16;98592.09;6148572;28;127294;-61
2021/01/02 12:09:38;;;;;;;;;47.00;38.00;;;;;15.72;34.74;98598.44;6158069;28;125091;-61
2021/01/02 12:12:39;;;;;;;;;46.00;37.20;;;;;15.24;35.87;98594.78;6160995;28;124905;-61
2021/01/02 12:15:41;;;;;;;;;50.25;40.00;;;;;15.01;36.39;98601.34;6143974;28;125624;-63
2021/01/02 12:18:42;;;;;;;;;50.50;40.00;;;;;14.83;36.67;98600.91;6143051;28;128239;-59
2021/01/02 12:21:44;;;;;;;;;49.00;40.00;;;;;14.53;37.28;98594.06;6159808;28;127855;-59
2021/01/02 12:24:45;;;;;;;;;54.00;43.00;;;;;14.17;37.92;98587.34;6159730;28;127699;-59
2021/01/02 12:27:47;;;;;;;;;49.75;40.00;;;;;13.90;38.73;98600.03;6160176;28;127650;-58
2021/01/02 12:30:48;;;;;;;;;53.00;42.00;;;;;13.76;39.04;98599.56;6159803;28;127937;-58
2021/01/02 12:33:50;;;;;;;;;51.20;42.00;;;;;13.93;39.11;98599.50;6160607;28;125550;-58
2021/01/02 12:36:53;;;;;;;;;56.20;44.40;;;;;13.85;39.22;98608.91;6172913;28;125186;-58
2021/01/02 12:39:54;;;;;;;;;58.40;46.00;;;;;13.88;39.18;98597.53;6160775;28;126789;-58
2021/01/02 12:42:56;;;;;;;;;61.00;46.67;;;;;13.70;39.57;98602.44;6157437;28;126907;-58
2021/01/02 12:45:58;;;;;;;;;61.40;47.00;;;;;13.45;39.92;98595.56;6159312;28;125250;-58
2021/01/02 12:48:59;;;;;;;;;61.60;48.00;;;;;13.32;40.17;98571.53;6158419;28;125518;-58
2021/01/02 12:52:04;;;;;;;;;58.00;45.00;;;;;13.26;40.91;98606.88;6159136;28;125487;-59
2021/01/02 12:55:07;;;;;;;;;61.00;46.00;;;;;13.10;41.21;98605.78;6159963;28;126232;-58
2021/01/02 12:58:08;;;;;;;;;59.20;46.00;;;;;13.08;41.49;98607.09;6159349;28;126431;-59
2021/01/02 13:01:09;;;;;;;;;60.25;46.00;;;;;13.01;41.59;98605.34;6159403;28;127664;-60
2021/01/02 13:04:11;;;;;;;;;58.00;46.00;;;;;12.98;41.68;98610.44;6159635;28;127628;-58
2021/01/02 13:07:12;;;;;;;;;56.00;44.75;;;;;12.93;41.79;98611.19;6161369;28;125756;-59
2021/01/02 13:10:14;;;;;;;;;55.00;44.60;;;;;13.02;41.54;98620.53;6141370;28;128892;-59
2021/01/02 13:13:22;;;;;;;;;55.40;43.60;;;;;12.98;41.64;98613.16;6152921;28;126135;-59
2021/01/02 13:16:24;;;;;;;;;58.60;44.00;;;;;12.87;41.96;98611.31;6160095;28;124907;-59
2021/01/02 13:19:25;;;;;;;;;53.50;43.25;;;;;12.70;42.50;98614.00;6152860;28;126090;-59
2021/01/02 13:22:27;;;;;;;;;53.00;43.00;;;;;12.68;42.51;98613.41;6159449;28;125285;-59
2021/01/02 13:25:28;;;;;;;;;55.50;43.00;;;;;12.65;42.66;98619.31;6158178;28;125301;-59
2021/01/02 13:28:30;;;;;;;;;53.00;43.00;;;;;12.69;42.88;98608.81;6159021;28;126759;-59
2021/01/02 13:31:42;;;;;;;;;50.40;41.40;;;;;12.84;42.73;98628.06;6158919;28;126895;-59
2021/01/02 13:34:43;;;;;;;;;54.60;42.40;;;;;12.74;42.44;98598.94;6153195;28;124988;-59
2021/01/02 13:37:44;;;;;;;;;53.00;42.00;;;;;12.89;42.45;98628.97;6159195;28;128643;-59
2021/01/02 13:40:46;;;;;;;;;53.00;43.20;;;;;12.74;42.76;98631.38;6158771;28;128410;-59
2021/01/02 13:43:47;;;;;;;;;53.80;43.60;;;;;12.68;42.84;98635.06;6158472;28;126430;-59
2021/01/02 13:46:55;;;;;;;;;57.50;44.00;;;;;12.12;43.13;98552.00;6158663;28;126953;-59
2021/01/02 13:49:56;;;;;;;;;53.20;42.80;;;;;12.41;43.42;98636.69;6159746;28;126045;-59
2021/01/02 13:52:58;;;;;;;;;56.00;44.00;;;;;12.35;43.41;98653.84;6159032;28;126874;-59
2021/01/02 13:56:00;;;;;;;;;57.60;45.00;;;;;12.28;43.78;98642.34;6159070;28;125244;-59
2021/01/02 13:59:01;;;;;;;;;55.00;43.00;;;;;12.11;43.82;98635.00;6161106;28;126731;-59
2021/01/02 14:02:03;;;;;;;;;54.80;43.20;;;;;12.05;43.69;98625.13;6158310;28;124936;-59
2021/01/02 14:05:05;;;;;;;;;57.25;44.50;;;;;12.17;43.94;98635.88;6158260;28;126122;-59
2021/01/02 14:08:20;;;;;;;;;53.00;43.00;;;;;12.09;44.15;98645.19;6158950;28;124538;-59